createdAt,value
2023-01-12T00:00:20.287Z,82.80
2023-01-12T00:01:20.189Z,82.90
2023-01-12T00:02:20.209Z,83.01
2023-01-12T00:03:20.168Z,82.90
2023-01-12T00:04:20.176Z,83.01
2023-01-12T00:05:20.149Z,83.05
2023-01-12T00:06:20.160Z,82.90
2023-01-12T00:07:20.130Z,82.60
2023-01-12T00:08:20.095Z,81.63
2023-01-12T00:09:20.127Z,81.21
2023-01-12T00:10:20.091Z,80.76
2023-01-12T00:11:20.079Z,80.56
2023-01-12T00:12:20.069Z,80.46
2023-01-12T00:13:20.042Z,80.56
2023-01-12T00:14:20.066Z,80.25
2023-01-12T00:15:20.085Z,80.35
2023-01-12T00:16:20.024Z,79.94
2023-01-12T00:17:19.985Z,79.73
2023-01-12T00:18:20.000Z,78.66
2023-01-12T00:19:19.979Z,78.01
2023-01-12T00:20:19.956Z,77.15
2023-01-12T00:21:19.993Z,76.53
2023-01-12T00:22:19.955Z,75.87
2023-01-12T00:23:19.946Z,75.36
2023-01-12T00:24:19.906Z,75.01
2023-01-12T00:25:19.914Z,74.60
2023-01-12T00:26:19.894Z,73.95
2023-01-12T00:27:19.948Z,73.85
2023-01-12T00:28:19.900Z,73.85
2023-01-12T00:29:19.843Z,73.74
2023-01-12T00:30:19.849Z,73.85
2023-01-12T00:31:19.934Z,73.54
2023-01-12T00:32:19.844Z,73.64
2023-01-12T00:33:19.827Z,73.64
2023-01-12T00:34:19.805Z,73.64
2023-01-12T00:35:19.772Z,73.43
2023-01-12T00:36:19.765Z,73.54
2023-01-12T00:37:19.770Z,73.54
2023-01-12T00:38:19.788Z,73.43
2023-01-12T00:39:19.731Z,73.43
2023-01-12T00:40:19.705Z,73.64
2023-01-12T00:41:19.717Z,73.85
2023-01-12T00:42:19.707Z,73.95
2023-01-12T00:43:19.654Z,74.08
2023-01-12T00:44:19.728Z,73.88
2023-01-12T00:45:19.664Z,74.08
2023-01-12T00:46:19.770Z,74.19
2023-01-12T00:47:19.668Z,74.19
2023-01-12T00:48:19.636Z,73.88
2023-01-12T00:49:19.596Z,73.95
2023-01-12T00:50:19.881Z,74.26
2023-01-12T00:51:19.577Z,74.19
2023-01-12T00:52:29.860Z,74.29
2023-01-12T00:53:20.592Z,74.71
2023-01-12T00:54:19.551Z,74.40
2023-01-12T00:55:19.537Z,74.60
2023-01-12T00:56:19.521Z,74.71
2023-01-12T00:59:21.457Z,74.71
2023-01-12T01:00:21.429Z,74.29
2023-01-12T01:01:21.576Z,74.08
2023-01-12T01:02:21.539Z,73.98
2023-01-12T01:03:21.420Z,73.57
2023-01-12T01:04:21.369Z,73.33
2023-01-12T01:05:21.359Z,73.02
2023-01-12T01:06:21.363Z,73.02
2023-01-12T01:07:21.398Z,72.71
2023-01-12T01:08:21.327Z,72.71
2023-01-12T01:09:21.329Z,72.71
2023-01-12T01:10:21.355Z,72.30
2023-01-12T01:11:21.305Z,72.16
2023-01-12T01:12:21.338Z,72.16
2023-01-12T01:13:21.328Z,71.96
2023-01-12T01:14:21.269Z,72.16
2023-01-12T01:15:21.254Z,72.47
2023-01-12T01:16:21.304Z,72.27
2023-01-12T01:17:21.252Z,72.16
2023-01-12T01:18:21.239Z,72.06
2023-01-12T01:19:21.253Z,71.96
2023-01-12T01:20:21.230Z,71.75
2023-01-12T01:21:21.176Z,71.86
2023-01-12T01:22:21.168Z,71.55
2023-01-12T01:23:21.172Z,71.10
2023-01-12T01:24:21.145Z,71.00
2023-01-12T01:25:21.141Z,71.10
2023-01-12T01:26:21.149Z,70.90
2023-01-12T01:27:21.104Z,70.79
2023-01-12T01:28:21.123Z,70.79
2023-01-12T01:29:21.093Z,70.69
2023-01-12T01:30:21.142Z,70.48
2023-01-12T01:31:21.129Z,70.79
2023-01-12T01:32:21.066Z,70.79
2023-01-12T01:33:21.043Z,70.90
2023-01-12T01:34:21.044Z,70.69
2023-01-12T01:35:21.017Z,70.59
2023-01-12T01:36:21.037Z,70.69
2023-01-12T01:37:20.984Z,70.69
2023-01-12T01:38:20.966Z,70.59
2023-01-12T01:39:20.990Z,70.69
2023-01-12T01:40:20.989Z,70.48
2023-01-12T01:41:20.948Z,70.25
2023-01-12T01:42:20.926Z,70.35
2023-01-12T01:43:20.925Z,70.56
2023-01-12T01:44:20.908Z,70.69
2023-01-12T01:46:41.842Z,70.69
2023-01-12T01:47:26.418Z,70.69
2023-01-12T01:48:27.872Z,70.90
2023-01-12T01:49:26.412Z,70.90
2023-01-12T01:50:26.375Z,70.59
2023-01-12T01:51:26.344Z,70.69
2023-01-12T01:52:26.346Z,70.69
2023-01-12T01:53:26.337Z,70.59
2023-01-12T01:54:26.303Z,70.59
2023-01-12T01:55:26.325Z,70.38
2023-01-12T01:56:26.290Z,70.48
2023-01-12T01:57:26.280Z,70.48
2023-01-12T01:58:26.277Z,70.59
2023-01-12T01:59:26.237Z,70.59
2023-01-12T02:00:26.263Z,70.25
2023-01-12T02:01:26.316Z,69.94
2023-01-12T02:02:26.241Z,70.04
2023-01-12T02:03:26.229Z,70.04
2023-01-12T02:04:26.213Z,69.84
2023-01-12T02:05:26.191Z,69.84
2023-01-12T02:06:26.168Z,69.94
2023-01-12T02:07:26.190Z,69.53
2023-01-12T02:08:26.183Z,69.60
2023-01-12T02:09:26.146Z,69.60
2023-01-12T02:10:26.127Z,69.60
2023-01-12T02:11:26.119Z,69.70
2023-01-12T02:12:26.102Z,69.60
2023-01-12T02:13:26.082Z,69.49
2023-01-12T02:14:26.103Z,69.49
2023-01-12T02:15:26.103Z,69.60
2023-01-12T02:16:26.149Z,69.70
2023-01-12T02:17:26.076Z,69.70
2023-01-12T02:18:26.021Z,69.80
2023-01-12T02:19:26.015Z,69.90
2023-01-12T02:20:26.045Z,69.90
2023-01-12T02:21:26.002Z,70.11
2023-01-12T02:22:26.035Z,70.01
2023-01-12T02:23:25.985Z,69.90
2023-01-12T02:24:25.994Z,69.90
2023-01-12T02:25:25.943Z,69.90
2023-01-12T02:26:25.970Z,69.90
2023-01-12T02:27:25.941Z,70.01
2023-01-12T02:28:25.916Z,69.90
2023-01-12T02:29:25.926Z,69.90
2023-01-12T02:30:25.938Z,69.80
2023-01-12T02:31:25.907Z,69.60
2023-01-12T02:32:25.864Z,69.26
2023-01-12T02:33:25.869Z,69.26
2023-01-12T02:34:25.855Z,69.36
2023-01-12T02:35:25.870Z,69.46
2023-01-12T02:36:25.821Z,69.49
2023-01-12T02:37:25.795Z,69.49
2023-01-12T02:38:25.831Z,69.56
2023-01-12T02:39:25.793Z,69.56
2023-01-12T02:40:25.813Z,69.46
2023-01-12T02:41:25.778Z,69.56
2023-01-12T02:42:25.748Z,69.67
2023-01-12T02:43:25.784Z,69.70
2023-01-12T02:44:25.732Z,69.90
2023-01-12T02:45:25.746Z,70.01
2023-01-12T02:46:25.733Z,70.11
2023-01-12T02:47:25.719Z,70.11
2023-01-12T02:48:25.715Z,70.21
2023-01-12T02:49:25.679Z,70.11
2023-01-12T02:50:25.686Z,70.32
2023-01-12T02:51:25.680Z,70.42
2023-01-12T02:52:25.647Z,70.42
2023-01-12T02:53:25.653Z,70.32
2023-01-12T02:54:25.608Z,70.21
2023-01-12T02:55:25.599Z,70.32
2023-01-12T02:56:25.644Z,70.32
2023-01-12T02:57:25.595Z,70.32
2023-01-12T02:58:25.598Z,70.52
2023-01-12T02:59:25.562Z,70.62
2023-01-12T03:00:25.635Z,70.73
2023-01-12T03:01:25.693Z,70.73
2023-01-12T03:02:25.562Z,70.73
2023-01-12T03:03:25.530Z,70.73
2023-01-12T03:04:25.530Z,70.73
2023-01-12T03:05:25.520Z,70.73
2023-01-12T03:06:25.496Z,70.83
2023-01-12T03:07:25.456Z,71.04
2023-01-12T03:08:25.455Z,71.04
2023-01-12T03:09:25.449Z,71.04
2023-01-12T03:10:25.445Z,70.94
2023-01-12T03:11:25.427Z,70.83
2023-01-12T03:12:25.437Z,70.94
2023-01-12T03:13:25.442Z,70.94
2023-01-12T03:14:25.376Z,71.04
2023-01-12T03:15:25.392Z,71.04
2023-01-12T03:16:25.418Z,71.24
2023-01-12T03:17:25.346Z,71.24
2023-01-12T03:18:25.345Z,71.14
2023-01-12T03:19:25.314Z,71.04
2023-01-12T03:20:25.306Z,70.94
2023-01-12T03:21:25.307Z,71.00
2023-01-12T03:22:25.300Z,70.79
2023-01-12T03:23:25.315Z,70.70
2023-01-12T03:24:25.254Z,70.79
2023-01-12T03:25:25.273Z,70.79
2023-01-12T03:26:25.240Z,70.79
2023-01-12T03:27:25.230Z,70.90
2023-01-12T03:28:25.279Z,71.00
2023-01-12T03:29:25.228Z,70.90
2023-01-12T03:30:25.195Z,70.90
2023-01-12T03:31:25.217Z,70.70
2023-01-12T03:32:25.161Z,70.70
2023-01-12T03:33:25.214Z,70.70
2023-01-12T03:34:25.139Z,70.70
2023-01-12T03:35:25.140Z,70.90
2023-01-12T03:36:25.152Z,70.90
2023-01-12T03:37:25.104Z,71.00
2023-01-12T03:38:25.109Z,71.00
2023-01-12T03:39:25.093Z,70.90
2023-01-12T03:40:25.091Z,71.00
2023-01-12T03:41:25.053Z,71.00
2023-01-12T03:42:25.065Z,71.11
2023-01-12T03:43:25.090Z,71.11
2023-01-12T03:44:25.023Z,71.11
2023-01-12T03:45:25.051Z,71.00
2023-01-12T03:46:25.082Z,71.11
2023-01-12T03:47:25.012Z,71.21
2023-01-12T03:48:24.980Z,71.21
2023-01-12T03:49:24.986Z,71.21
2023-01-12T03:50:24.951Z,71.21
2023-01-12T03:51:25.200Z,71.31
2023-01-12T03:52:24.971Z,71.21
2023-01-12T03:53:24.956Z,71.11
2023-01-12T03:54:24.958Z,71.00
2023-01-12T03:55:24.935Z,70.90
2023-01-12T03:56:24.872Z,71.00
2023-01-12T03:57:24.872Z,71.11
2023-01-12T03:58:24.890Z,71.00
2023-01-12T03:59:24.898Z,70.90
2023-01-12T04:00:24.848Z,71.00
2023-01-12T04:01:25.051Z,71.00
2023-01-12T04:02:24.889Z,71.00
2023-01-12T04:03:24.879Z,70.90
2023-01-12T04:04:24.810Z,70.70
2023-01-12T04:05:24.778Z,70.70
2023-01-12T04:06:24.800Z,70.70
2023-01-12T04:07:24.786Z,70.70
2023-01-12T04:08:24.767Z,70.90
2023-01-12T04:09:24.716Z,70.79
2023-01-12T04:10:24.758Z,70.90
2023-01-12T04:11:24.703Z,70.79
2023-01-12T04:12:24.718Z,70.90
2023-01-12T04:13:24.691Z,70.79
2023-01-12T04:14:24.700Z,70.90
2023-01-12T04:15:24.691Z,70.90
2023-01-12T04:16:24.784Z,71.00
2023-01-12T04:17:24.697Z,71.11
2023-01-12T04:18:24.683Z,71.21
2023-01-12T04:19:24.609Z,71.31
2023-01-12T04:20:24.597Z,71.31
2023-01-12T04:21:24.587Z,71.31
2023-01-12T04:22:24.603Z,71.51
2023-01-12T04:23:24.604Z,71.51
2023-01-12T04:24:24.563Z,71.51
2023-01-12T04:25:24.554Z,71.41
2023-01-12T04:26:24.590Z,71.51
2023-01-12T04:27:24.559Z,71.51
2023-01-12T04:28:24.527Z,71.51
2023-01-12T04:29:24.500Z,71.72
2023-01-12T04:30:24.524Z,71.55
2023-01-12T04:31:24.533Z,71.66
2023-01-12T04:32:24.486Z,71.66
2023-01-12T04:33:24.484Z,71.75
2023-01-12T04:34:24.493Z,71.86
2023-01-12T04:35:24.446Z,71.96
2023-01-12T04:36:24.458Z,71.75
2023-01-12T04:37:24.412Z,71.86
2023-01-12T04:38:24.395Z,71.86
2023-01-12T04:39:24.373Z,71.86
2023-01-12T04:40:24.371Z,71.86
2023-01-12T04:41:24.362Z,71.96
2023-01-12T04:42:24.387Z,72.06
2023-01-12T04:43:24.337Z,71.86
2023-01-12T04:44:24.321Z,71.75
2023-01-12T04:45:24.359Z,71.75
2023-01-12T04:46:24.294Z,71.86
2023-01-12T04:47:24.327Z,71.86
2023-01-12T04:48:25.309Z,71.75
2023-01-12T04:49:24.262Z,71.96
2023-01-12T04:50:24.248Z,72.06
2023-01-12T04:51:24.248Z,72.06
2023-01-12T04:52:24.244Z,72.06
2023-01-12T04:53:24.283Z,72.06
2023-01-12T04:54:24.205Z,72.06
2023-01-12T04:55:24.195Z,72.17
2023-01-12T04:56:24.190Z,72.27
2023-01-12T04:57:24.192Z,72.47
2023-01-12T04:58:24.198Z,72.58
2023-01-12T04:59:24.151Z,72.68
2023-01-12T05:00:24.127Z,72.68
2023-01-12T05:01:24.211Z,72.78
2023-01-12T05:02:24.147Z,72.89
2023-01-12T05:03:24.101Z,72.99
2023-01-12T05:04:24.154Z,72.99
2023-01-12T05:05:24.088Z,72.99
2023-01-12T05:06:24.075Z,72.99
2023-01-12T05:07:24.059Z,73.09
2023-01-12T05:08:24.071Z,73.09
2023-01-12T05:09:24.031Z,73.19
2023-01-12T05:10:24.012Z,73.30
2023-01-12T05:11:24.044Z,73.50
2023-01-12T05:12:24.024Z,73.61
2023-01-12T05:13:24.000Z,73.71
2023-01-12T05:14:23.959Z,73.71
2023-01-12T05:15:23.973Z,73.61
2023-01-12T05:16:24.007Z,73.61
2023-01-12T05:17:23.951Z,73.50
2023-01-12T05:18:23.930Z,73.50
2023-01-12T05:19:23.934Z,73.50
2023-01-12T05:20:23.893Z,73.50
2023-01-12T05:21:23.892Z,73.50
2023-01-12T05:22:23.931Z,73.50
2023-01-12T05:23:23.881Z,73.50
2023-01-12T05:24:23.870Z,73.61
2023-01-12T05:25:23.856Z,73.71
2023-01-12T05:26:23.866Z,73.81
2023-01-12T05:27:23.817Z,73.71
2023-01-12T05:28:23.812Z,73.81
2023-01-12T05:29:23.792Z,73.91
2023-01-12T05:30:23.807Z,73.81
2023-01-12T05:31:23.794Z,73.81
2023-01-12T05:32:23.778Z,73.81
2023-01-12T05:33:23.781Z,73.71
2023-01-12T05:34:23.746Z,73.71
2023-01-12T05:35:23.727Z,73.61
2023-01-12T05:36:26.376Z,73.61
2023-01-12T05:37:23.719Z,73.61
2023-01-12T05:38:23.716Z,73.61
2023-01-12T05:39:23.691Z,73.61
2023-01-12T05:40:23.659Z,73.61
2023-01-12T05:41:23.636Z,73.61
2023-01-12T05:42:23.712Z,73.61
2023-01-12T05:43:23.671Z,73.61
2023-01-12T05:44:23.607Z,73.61
2023-01-12T05:45:23.596Z,73.61
2023-01-12T05:46:23.698Z,73.61
2023-01-12T05:47:23.600Z,73.61
2023-01-12T05:48:23.585Z,73.61
2023-01-12T05:49:23.576Z,73.61
2023-01-12T05:50:23.560Z,73.61
2023-01-12T05:51:23.555Z,73.61
2023-01-12T05:52:23.570Z,73.71
2023-01-12T05:53:23.549Z,73.71
2023-01-12T05:54:23.519Z,73.68
2023-01-12T05:55:23.469Z,73.57
2023-01-12T05:56:23.486Z,73.47
2023-01-12T05:57:23.469Z,73.47
2023-01-12T05:58:23.525Z,73.57
2023-01-12T05:59:23.455Z,73.57
2023-01-12T06:00:23.436Z,73.47
2023-01-12T06:01:23.488Z,73.47
2023-01-12T06:02:23.485Z,73.47
2023-01-12T06:03:23.847Z,73.47
2023-01-12T06:04:23.406Z,73.47
2023-01-12T06:05:23.442Z,73.27
2023-01-12T06:06:23.365Z,73.27
2023-01-12T06:07:23.397Z,73.36
2023-01-12T06:08:23.344Z,73.36
2023-01-12T06:09:23.345Z,73.27
2023-01-12T06:10:23.460Z,73.27
2023-01-12T06:11:23.321Z,73.27
2023-01-12T06:12:23.334Z,73.27
2023-01-12T06:13:23.287Z,73.36
2023-01-12T06:14:23.283Z,73.27
2023-01-12T06:15:23.285Z,73.16
2023-01-12T06:16:23.247Z,73.06
2023-01-12T06:17:23.264Z,73.02
2023-01-12T06:18:23.228Z,72.92
2023-01-12T06:19:23.215Z,72.92
2023-01-12T06:20:23.205Z,72.72
2023-01-12T06:21:23.198Z,72.72
2023-01-12T06:22:23.209Z,72.51
2023-01-12T06:23:23.161Z,72.51
2023-01-12T06:24:24.159Z,72.61
2023-01-12T06:25:23.169Z,72.61
2023-01-12T06:26:23.181Z,72.51
2023-01-12T06:27:23.145Z,72.51
2023-01-12T06:28:23.129Z,72.51
2023-01-12T06:29:23.106Z,72.41
2023-01-12T06:30:23.068Z,72.41
2023-01-12T06:31:23.112Z,72.41
2023-01-12T06:32:23.066Z,72.41
2023-01-12T06:33:23.098Z,72.41
2023-01-12T06:34:23.079Z,72.41
2023-01-12T06:35:23.011Z,72.41
2023-01-12T06:36:23.053Z,72.41
2023-01-12T06:37:23.007Z,72.41
2023-01-12T06:38:23.011Z,72.41
2023-01-12T06:39:22.973Z,72.41
2023-01-12T06:40:23.223Z,72.51
2023-01-12T06:41:22.957Z,72.51
2023-01-12T06:42:22.986Z,72.41
2023-01-12T06:43:22.946Z,72.41
2023-01-12T06:44:22.912Z,72.10
2023-01-12T06:45:22.911Z,72.10
2023-01-12T06:46:26.004Z,71.89
2023-01-12T06:47:22.871Z,71.79
2023-01-12T06:48:22.895Z,72.00
2023-01-12T06:49:22.859Z,72.10
2023-01-12T06:50:22.874Z,72.00
2023-01-12T06:51:22.904Z,72.00
2023-01-12T06:52:22.850Z,72.20
2023-01-12T06:53:22.841Z,72.20
2023-01-12T06:54:22.815Z,72.17
2023-01-12T06:55:22.822Z,71.76
2023-01-12T06:56:22.847Z,71.66
2023-01-12T06:57:22.755Z,71.55
2023-01-12T06:58:22.788Z,71.55
2023-01-12T06:59:22.797Z,71.55
2023-01-12T07:00:22.774Z,71.55
2023-01-12T07:01:23.974Z,71.55
2023-01-12T07:02:22.708Z,71.55
2023-01-12T07:03:22.701Z,71.66
2023-01-12T07:04:22.712Z,71.86
2023-01-12T07:05:22.677Z,71.76
2023-01-12T07:06:22.696Z,71.86
2023-01-12T07:07:22.712Z,71.97
2023-01-12T07:08:22.637Z,71.97
2023-01-12T07:09:22.645Z,71.79
2023-01-12T07:10:22.628Z,71.86
2023-01-12T07:11:22.586Z,71.79
2023-01-12T07:12:22.905Z,71.89
2023-01-12T07:13:22.882Z,71.76
2023-01-12T07:14:22.600Z,71.66
2023-01-12T07:15:22.639Z,71.45
2023-01-12T07:16:22.637Z,71.45
2023-01-12T07:17:22.565Z,71.55
2023-01-12T07:18:22.663Z,71.55
2023-01-12T07:19:22.529Z,71.55
2023-01-12T07:20:22.514Z,71.45
2023-01-12T07:21:22.559Z,71.55
2023-01-12T07:22:22.494Z,71.55
2023-01-12T07:23:22.493Z,71.45
2023-01-12T07:24:22.479Z,71.45
2023-01-12T07:25:22.472Z,71.25
2023-01-12T07:26:22.421Z,71.35
2023-01-12T07:27:22.422Z,71.35
2023-01-12T07:28:22.462Z,71.35
2023-01-12T07:29:22.459Z,71.25
2023-01-12T07:30:22.409Z,71.14
2023-01-12T07:31:22.448Z,71.14
2023-01-12T07:32:22.361Z,71.14
2023-01-12T07:33:22.373Z,71.14
2023-01-12T07:34:22.361Z,71.25
2023-01-12T07:35:22.327Z,71.35
2023-01-12T07:36:22.318Z,71.25
2023-01-12T07:37:22.551Z,71.14
2023-01-12T07:38:22.276Z,71.01
2023-01-12T07:39:22.333Z,71.14
2023-01-12T07:40:22.272Z,71.11
2023-01-12T07:41:22.245Z,71.11
2023-01-12T07:42:22.276Z,71.01
2023-01-12T07:43:22.279Z,71.11
2023-01-12T07:44:22.267Z,70.90
2023-01-12T07:45:22.251Z,71.01
2023-01-12T07:46:22.263Z,70.90
2023-01-12T07:47:22.203Z,70.90
2023-01-12T07:48:22.495Z,70.90
2023-01-12T07:49:22.195Z,70.70
2023-01-12T07:50:22.166Z,70.70
2023-01-12T07:51:22.174Z,70.80
2023-01-12T07:52:22.136Z,70.70
2023-01-12T07:53:22.192Z,70.60
2023-01-12T07:54:22.120Z,70.60
2023-01-12T07:55:22.468Z,70.50
2023-01-12T07:56:22.120Z,70.50
2023-01-12T07:57:22.085Z,70.39
2023-01-12T07:58:22.108Z,70.50
2023-01-12T07:59:22.084Z,70.50
2023-01-12T08:00:22.050Z,70.39
2023-01-12T08:01:22.232Z,70.39
2023-01-12T08:02:22.094Z,70.29
2023-01-12T08:03:22.258Z,70.39
2023-01-12T08:04:22.000Z,70.29
2023-01-12T08:05:22.081Z,70.18
2023-01-12T08:06:21.990Z,70.05
2023-01-12T08:07:21.973Z,70.05
2023-01-12T08:08:22.117Z,70.05
2023-01-12T08:09:21.943Z,69.84
2023-01-12T08:10:21.979Z,69.64
2023-01-12T08:11:21.909Z,69.54
2023-01-12T08:12:21.955Z,69.64
2023-01-12T08:13:21.958Z,69.64
2023-01-12T08:14:21.909Z,69.64
2023-01-12T08:15:21.872Z,69.43
2023-01-12T08:16:21.892Z,69.54
2023-01-12T08:17:21.870Z,69.33
2023-01-12T08:18:21.829Z,69.23
2023-01-12T08:19:21.817Z,69.02
2023-01-12T08:20:21.835Z,69.02
2023-01-12T08:21:21.804Z,68.72
2023-01-12T08:22:23.303Z,68.72
2023-01-12T08:23:21.828Z,68.62
2023-01-12T08:24:21.814Z,68.51
2023-01-12T08:25:21.772Z,68.62
2023-01-12T08:26:21.745Z,68.62
2023-01-12T08:27:21.727Z,68.51
2023-01-12T08:28:21.920Z,68.51
2023-01-12T08:29:21.728Z,68.62
2023-01-12T08:30:21.711Z,68.62
2023-01-12T08:31:21.678Z,68.62
2023-01-12T08:32:21.673Z,68.62
2023-01-12T08:33:21.692Z,68.72
2023-01-12T08:34:21.642Z,68.68
2023-01-12T08:35:21.659Z,68.51
2023-01-12T08:36:21.643Z,68.51
2023-01-12T08:37:21.597Z,68.59
2023-01-12T08:38:21.626Z,68.48
2023-01-12T08:39:21.588Z,68.38
2023-01-12T08:40:21.681Z,68.38
2023-01-12T08:41:21.564Z,68.27
2023-01-12T08:42:21.540Z,68.27
2023-01-12T08:43:21.576Z,68.17
2023-01-12T08:44:21.555Z,68.17
2023-01-12T08:45:21.509Z,68.14
2023-01-12T08:46:21.735Z,67.94
2023-01-12T08:47:21.505Z,67.94
2023-01-12T08:48:21.507Z,67.83
2023-01-12T08:49:22.953Z,67.94
2023-01-12T08:50:21.693Z,67.73
2023-01-12T08:51:21.713Z,67.73
2023-01-12T08:52:21.716Z,67.63
2023-01-12T08:53:21.651Z,67.52
2023-01-12T08:54:21.393Z,67.43
2023-01-12T08:55:21.394Z,67.43
2023-01-12T08:56:22.427Z,67.49
2023-01-12T08:57:21.416Z,67.19
2023-01-12T08:58:23.164Z,67.19
2023-01-12T08:59:21.810Z,66.98
2023-01-12T09:00:21.352Z,67.19
2023-01-12T09:01:21.616Z,66.98
2023-01-12T09:02:21.415Z,66.88
2023-01-12T09:03:22.318Z,67.08
2023-01-12T09:04:21.300Z,66.98
2023-01-12T09:05:21.263Z,66.88
2023-01-12T09:06:21.260Z,66.98
2023-01-12T09:07:21.284Z,66.78
2023-01-12T09:08:21.278Z,66.95
2023-01-12T09:09:21.238Z,66.75
2023-01-12T09:10:21.251Z,66.64
2023-01-12T09:11:21.199Z,66.47
2023-01-12T09:12:23.598Z,66.47
2023-01-12T09:13:21.221Z,66.57
2023-01-12T09:14:21.164Z,66.67
2023-01-12T09:15:21.153Z,66.78
2023-01-12T09:16:21.548Z,66.78
2023-01-12T09:17:21.147Z,66.67
2023-01-12T09:18:21.172Z,66.88
2023-01-12T09:19:21.109Z,66.88
2023-01-12T09:20:21.367Z,66.67
2023-01-12T09:21:21.089Z,66.47
2023-01-12T09:22:21.099Z,66.27
2023-01-12T09:23:21.086Z,66.27
2023-01-12T09:24:21.050Z,66.37
2023-01-12T09:25:21.149Z,66.47
2023-01-12T09:26:21.087Z,66.47
2023-01-12T09:27:21.031Z,66.37
2023-01-12T09:28:20.990Z,66.37
2023-01-12T09:29:21.025Z,66.47
2023-01-12T09:30:20.991Z,66.16
2023-01-12T09:31:21.037Z,65.96
2023-01-12T09:32:26.031Z,66.06
2023-01-12T09:33:23.972Z,66.06
2023-01-12T09:34:20.945Z,65.86
2023-01-12T09:35:20.936Z,65.96
2023-01-12T09:36:22.002Z,65.96
2023-01-12T09:37:20.941Z,65.96
2023-01-12T09:38:21.059Z,65.96
2023-01-12T09:39:27.733Z,65.86
2023-01-12T09:40:21.895Z,65.65
2023-01-12T09:41:20.867Z,65.65
2023-01-12T09:42:20.877Z,65.75
2023-01-12T09:43:20.828Z,65.55
2023-01-12T09:44:20.888Z,65.75
2023-01-12T09:45:21.197Z,65.34
2023-01-12T09:46:20.834Z,65.55
2023-01-12T09:47:20.785Z,65.75
2023-01-12T09:48:20.764Z,65.65
2023-01-12T09:49:20.797Z,65.75
2023-01-12T09:50:20.817Z,65.75
2023-01-12T09:51:23.799Z,65.75
2023-01-12T09:52:20.748Z,65.86
2023-01-12T09:53:20.720Z,65.96
2023-01-12T09:54:20.709Z,65.65
2023-01-12T09:55:20.802Z,65.86
2023-01-12T09:56:20.706Z,65.55
2023-01-12T09:57:28.821Z,65.55
2023-01-12T09:58:21.695Z,65.21
2023-01-12T09:59:20.640Z,65.31
2023-01-12T10:00:20.704Z,65.01
2023-01-12T10:01:29.385Z,65.11
2023-01-12T10:02:21.683Z,64.80
2023-01-12T10:03:20.900Z,64.70
2023-01-12T10:04:20.604Z,64.80
2023-01-12T10:05:23.793Z,64.70
2023-01-12T10:06:20.593Z,64.39
2023-01-12T10:07:21.606Z,64.39
2023-01-12T10:08:20.566Z,64.29
2023-01-12T10:09:20.532Z,64.50
2023-01-12T10:10:20.558Z,64.50
2023-01-12T10:11:20.595Z,64.29
2023-01-12T10:12:20.507Z,64.70
2023-01-12T10:13:20.511Z,64.60
2023-01-12T10:14:20.829Z,64.50
2023-01-12T10:15:20.453Z,64.29
2023-01-12T10:16:20.511Z,64.60
2023-01-12T10:17:20.495Z,64.50
2023-01-12T10:18:20.432Z,64.60
2023-01-12T10:19:20.439Z,64.60
2023-01-12T10:20:20.403Z,64.39
2023-01-12T10:21:20.404Z,64.39
2023-01-12T10:22:20.408Z,64.39
2023-01-12T10:23:20.439Z,64.39
2023-01-12T10:24:20.358Z,64.39
2023-01-12T10:25:20.368Z,64.60
2023-01-12T10:26:20.328Z,64.60
2023-01-12T10:27:20.395Z,64.50
2023-01-12T10:28:20.308Z,64.60
2023-01-12T10:29:20.297Z,64.39
2023-01-12T10:30:20.308Z,64.39
2023-01-12T10:31:20.314Z,64.60
2023-01-12T10:32:20.575Z,64.70
2023-01-12T10:33:20.278Z,64.90
2023-01-12T10:34:20.272Z,65.21
2023-01-12T10:35:20.302Z,65.31
2023-01-12T10:36:20.255Z,65.21
2023-01-12T10:37:20.195Z,65.11
2023-01-12T10:38:20.585Z,65.42
2023-01-12T10:39:20.199Z,65.42
2023-01-12T10:40:20.259Z,65.72
2023-01-12T10:41:20.223Z,65.62
2023-01-12T10:42:20.150Z,65.83
2023-01-12T10:43:20.665Z,65.72
2023-01-12T10:44:20.122Z,65.72
2023-01-12T10:45:20.155Z,66.03
2023-01-12T10:46:20.140Z,65.83
2023-01-12T10:47:20.135Z,66.34
2023-01-12T10:48:20.108Z,66.13
2023-01-12T10:49:20.137Z,66.13
2023-01-12T10:50:20.174Z,66.03
2023-01-12T10:51:20.069Z,66.44
2023-01-12T10:52:20.123Z,66.24
2023-01-12T10:53:20.049Z,66.13
2023-01-12T10:54:20.055Z,65.93
2023-01-12T10:55:20.053Z,66.34
2023-01-12T10:56:20.026Z,66.64
2023-01-12T10:57:19.977Z,67.05
2023-01-12T10:58:20.036Z,66.64
2023-01-12T10:59:19.956Z,66.44
2023-01-12T11:00:20.010Z,66.95
2023-01-12T11:01:20.053Z,67.16
2023-01-12T11:02:20.139Z,67.05
2023-01-12T11:03:19.902Z,66.75
2023-01-12T11:04:19.916Z,66.85
2023-01-12T11:05:19.898Z,67.67
2023-01-12T11:06:19.914Z,66.54
2023-01-12T11:07:19.919Z,66.85
2023-01-12T11:08:19.856Z,66.85
2023-01-12T11:09:19.869Z,66.54
2023-01-12T11:10:19.944Z,66.34
2023-01-12T11:11:19.822Z,66.31
2023-01-12T11:12:20.946Z,66.10
2023-01-12T11:13:19.778Z,65.80
2023-01-12T11:14:24.135Z,65.69
2023-01-12T11:15:19.772Z,65.49
2023-01-12T11:16:19.832Z,65.28
2023-01-12T11:17:19.771Z,65.28
2023-01-12T11:18:20.499Z,65.39
2023-01-12T11:19:19.740Z,64.98
2023-01-12T11:20:19.712Z,64.87
2023-01-12T11:21:19.732Z,64.77
2023-01-12T11:22:19.680Z,64.77
2023-01-12T11:23:19.713Z,64.77
2023-01-12T11:24:19.725Z,64.77
2023-01-12T11:25:19.662Z,64.77
2023-01-12T11:26:19.880Z,64.77
2023-01-12T11:27:19.655Z,64.74
2023-01-12T11:28:19.760Z,64.64
2023-01-12T11:29:19.631Z,64.43
2023-01-12T11:30:19.596Z,64.13
2023-01-12T11:31:19.593Z,64.23
2023-01-12T11:32:19.582Z,64.30
2023-01-12T11:33:19.565Z,64.30
2023-01-12T11:34:19.567Z,64.00
2023-01-12T11:35:19.545Z,64.00
2023-01-12T11:36:19.571Z,64.00
2023-01-12T11:37:19.534Z,64.00
2023-01-12T11:38:19.524Z,64.23
2023-01-12T11:39:19.497Z,64.43
2023-01-12T11:40:19.511Z,64.54
2023-01-12T11:41:19.548Z,64.43
2023-01-12T11:42:19.480Z,64.54
2023-01-12T11:43:19.469Z,64.84
2023-01-12T11:44:19.447Z,64.95
2023-01-12T11:45:19.411Z,64.74
2023-01-12T11:46:19.427Z,64.84
2023-01-12T11:47:19.423Z,65.25
2023-01-12T11:48:19.396Z,65.25
2023-01-12T11:49:19.391Z,65.46
2023-01-12T11:50:19.406Z,65.56
2023-01-12T11:51:19.373Z,65.56
2023-01-12T11:52:19.341Z,65.66
2023-01-12T11:53:20.369Z,65.59
2023-01-12T11:54:19.329Z,65.80
2023-01-12T11:55:19.365Z,65.69
2023-01-12T11:56:19.304Z,65.90
2023-01-12T11:57:19.299Z,65.87
2023-01-12T11:58:19.319Z,65.97
2023-01-12T11:59:19.252Z,65.77
2023-01-12T12:00:19.327Z,66.07
2023-01-12T12:01:19.258Z,66.07
2023-01-12T12:02:19.330Z,65.87
2023-01-12T12:03:19.376Z,65.77
2023-01-12T12:04:19.226Z,65.77
2023-01-12T12:05:19.553Z,65.87
2023-01-12T12:06:19.192Z,65.53
2023-01-12T12:07:19.176Z,65.53
2023-01-12T12:08:19.319Z,65.63
2023-01-12T12:09:19.150Z,65.22
2023-01-12T12:10:19.132Z,65.33
2023-01-12T12:11:19.130Z,65.12
2023-01-12T12:12:19.131Z,65.22
2023-01-12T12:13:19.162Z,65.53
2023-01-12T12:14:19.369Z,65.43
2023-01-12T12:15:19.068Z,65.22
2023-01-12T12:16:19.126Z,65.12
2023-01-12T12:17:19.027Z,65.02
2023-01-12T12:18:19.047Z,65.12
2023-01-12T12:19:19.040Z,65.33
2023-01-12T12:20:19.013Z,65.43
2023-01-12T12:21:19.062Z,64.92
2023-01-12T12:22:18.977Z,64.92
2023-01-12T12:23:18.968Z,65.02
2023-01-12T12:24:18.998Z,64.81
2023-01-12T12:25:18.939Z,65.02
2023-01-12T12:26:18.940Z,65.12
2023-01-12T12:27:18.931Z,65.33
2023-01-12T12:28:21.942Z,65.56
2023-01-12T12:29:18.943Z,65.56
2023-01-12T12:30:18.910Z,65.56
2023-01-12T12:31:18.933Z,65.87
2023-01-12T12:32:18.884Z,66.07
2023-01-12T12:33:18.885Z,65.77
2023-01-12T12:34:18.851Z,65.77
2023-01-12T12:35:18.894Z,65.87
2023-01-12T12:36:18.837Z,65.87
2023-01-12T12:37:18.836Z,66.07
2023-01-12T12:38:18.800Z,65.87
2023-01-12T12:39:18.815Z,65.97
2023-01-12T12:40:18.803Z,66.07
2023-01-12T12:41:18.790Z,66.28
2023-01-12T12:42:18.777Z,66.28
2023-01-12T12:43:18.769Z,66.25
2023-01-12T12:44:18.753Z,66.04
2023-01-12T12:45:18.750Z,66.14
2023-01-12T12:46:18.707Z,66.25
2023-01-12T12:47:18.675Z,66.14
2023-01-12T12:48:18.696Z,66.58
2023-01-12T12:49:18.674Z,66.78
2023-01-12T12:50:18.724Z,66.89
2023-01-12T12:51:19.658Z,67.10
2023-01-12T12:52:18.646Z,67.30
2023-01-12T12:53:18.627Z,67.40
2023-01-12T12:54:18.698Z,67.68
2023-01-12T12:55:18.630Z,67.47